Time;durP1;ratioP1;P1;durP2;ratioP2;P2;SDS_P1;SDS_P2;PMS_P1;PMS_P2;Temp;Humidity;BMP_temperature;BMP_pressure;BME280_temperature;BME280_humidity;BME280_pressure;Samples;Min_cycle;Max_cycle;Signal;HPM_P1;HPM_P2
2022/04/21 00:00:17;;;;;;;7.10;4.82;;;9.50;96.70;;;;;;4943676;28;20031;-79
2022/04/21 00:02:43;;;;;;;7.90;4.45;;;9.40;96.90;;;;;;4942291;28;20027;-80
2022/04/21 00:05:10;;;;;;;6.75;4.40;;;9.40;97.00;;;;;;4941686;28;20045;-81
2022/04/21 00:07:36;;;;;;;8.25;4.47;;;9.50;97.10;;;;;;4935239;28;20146;-76
2022/04/21 00:10:07;;;;;;;7.45;4.45;;;9.50;97.20;;;;;;4939552;28;20669;-80
2022/04/21 00:12:36;;;;;;;8.20;4.65;;;9.40;97.50;;;;;;4942758;28;20054;-83
2022/04/21 00:15:04;;;;;;;6.65;4.57;;;9.40;97.70;;;;;;4932307;28;20027;-80
2022/04/21 00:17:30;;;;;;;5.72;4.47;;;9.30;97.70;;;;;;4927603;28;20165;-83
2022/04/21 00:19:57;;;;;;;5.85;4.25;;;9.30;97.90;;;;;;4928091;28;20922;-84
2022/04/21 00:25:08;;;;;;;8.40;4.40;;;9.30;98.00;;;;;;4947352;28;20046;-84
2022/04/21 00:27:44;;;;;;;8.82;4.60;;;9.30;98.20;;;;;;4952419;28;20027;-86
2022/04/21 00:30:12;;;;;;;7.13;4.63;;;9.30;98.30;;;;;;4962609;28;20055;-80
2022/04/21 00:32:39;;;;;;;6.93;4.85;;;9.30;98.30;;;;;;4958641;28;20427;-80
2022/04/21 00:35:06;;;;;;;8.63;4.65;;;9.30;98.40;;;;;;4942107;28;20114;-80
2022/04/21 00:37:43;;;;;;;8.15;5.28;;;9.20;98.70;;;;;;4942493;28;20067;-83
2022/04/21 00:40:09;;;;;;;8.35;4.22;;;9.20;98.80;;;;;;4930537;28;20045;-79
2022/04/21 00:42:35;;;;;;;9.65;5.00;;;9.20;99.10;;;;;;4946841;28;20126;-86
2022/04/21 00:45:01;;;;;;;10.15;5.10;;;9.10;99.10;;;;;;4945013;28;20042;-82
2022/04/21 00:47:29;;;;;;;9.43;4.85;;;9.10;99.20;;;;;;4946358;28;20129;-82
2022/04/21 00:49:56;;;;;;;6.72;4.35;;;9.10;99.30;;;;;;4942875;28;20558;-84
2022/04/21 00:52:25;;;;;;;7.03;4.50;;;9.10;99.50;;;;;;4928664;28;20423;-80
2022/04/21 00:54:51;;;;;;;8.00;4.68;;;9.10;99.60;;;;;;4959361;28;20143;-78
2022/04/21 00:57:16;;;;;;;6.35;4.70;;;9.10;99.60;;;;;;4952056;28;20102;-80
2022/04/21 00:59:45;;;;;;;6.75;4.60;;;9.00;99.60;;;;;;4948963;28;20054;-90
2022/04/21 01:04:59;;;;;;;7.85;4.70;;;9.00;99.80;;;;;;4948878;28;20383;-87
2022/04/21 01:07:27;;;;;;;9.25;5.03;;;9.00;99.90;;;;;;4949140;28;20130;-79
2022/04/21 01:09:56;;;;;;;9.55;5.32;;;8.90;99.90;;;;;;4952501;28;20123;-80
2022/04/21 01:12:23;;;;;;;6.13;4.13;;;8.90;99.90;;;;;;4941784;28;20034;-83
2022/04/21 01:14:49;;;;;;;5.53;4.15;;;8.90;99.90;;;;;;4934451;28;22929;-79
2022/04/21 01:17:15;;;;;;;5.45;4.30;;;8.80;99.90;;;;;;4933373;28;20534;-78
2022/04/21 01:19:42;;;;;;;8.43;5.03;;;8.80;99.90;;;;;;4947899;28;20031;-84
2022/04/21 01:22:10;;;;;;;9.20;4.60;;;8.80;99.90;;;;;;4931342;28;20090;-83
2022/04/21 01:24:36;;;;;;;10.93;4.60;;;8.70;99.90;;;;;;4930673;28;20373;-79
2022/04/21 01:27:02;;;;;;;6.32;4.28;;;8.70;99.90;;;;;;4932018;28;20031;-79
2022/04/21 01:29:28;;;;;;;6.75;4.80;;;8.70;99.90;;;;;;4933845;28;20023;-81
2022/04/21 01:31:54;;;;;;;7.00;4.50;;;8.70;99.90;;;;;;4946236;28;20041;-81
2022/04/21 01:34:21;;;;;;;5.60;3.70;;;8.70;99.90;;;;;;4931646;28;20040;-80
2022/04/21 01:42:18;;;;;;;8.07;4.90;;;8.50;99.90;;;;;;4945711;28;20034;-81
2022/04/21 01:44:44;;;;;;;9.07;4.43;;;8.50;99.90;;;;;;4945800;28;20031;-82
2022/04/21 01:47:11;;;;;;;8.52;4.20;;;8.60;99.90;;;;;;4948627;28;20533;-84
2022/04/21 01:49:37;;;;;;;8.80;4.65;;;8.50;99.90;;;;;;4950064;28;22212;-82
2022/04/21 01:52:03;;;;;;;6.85;4.82;;;8.50;99.90;;;;;;4960928;28;20035;-80
2022/04/21 01:54:31;;;;;;;8.57;5.00;;;8.50;99.90;;;;;;4948234;28;20035;-79
2022/04/21 01:56:56;;;;;;;6.63;4.15;;;8.40;99.90;;;;;;4949083;28;20213;-85
2022/04/21 01:59:24;;;;;;;9.38;4.40;;;8.40;99.90;;;;;;4945947;28;20243;-83
2022/04/21 02:01:50;;;;;;;5.88;4.05;;;8.40;99.90;;;;;;4945401;28;20235;-79
2022/04/21 02:04:17;;;;;;;9.40;4.43;;;8.50;99.90;;;;;;4948339;28;20513;-83
2022/04/21 02:06:42;;;;;;;9.77;4.72;;;8.40;99.90;;;;;;4946169;28;20099;-79
2022/04/21 02:09:08;;;;;;;6.93;4.10;;;8.40;99.90;;;;;;4949511;28;20246;-80
2022/04/21 02:11:36;;;;;;;6.57;4.30;;;8.50;99.90;;;;;;4948471;28;20042;-80
2022/04/21 02:14:01;;;;;;;7.20;4.63;;;8.40;99.90;;;;;;4941387;28;20035;-82
2022/04/21 02:16:28;;;;;;;6.85;4.55;;;8.40;99.90;;;;;;4923999;28;20235;-75
2022/04/21 02:18:54;;;;;;;9.20;4.28;;;8.40;99.90;;;;;;4940813;28;20591;-75
2022/04/21 02:21:19;;;;;;;7.00;4.00;;;8.40;99.90;;;;;;4923660;28;20035;-78
2022/04/21 02:23:47;;;;;;;8.48;4.88;;;8.30;99.90;;;;;;4942852;28;20074;-81
2022/04/21 02:26:13;;;;;;;7.25;4.32;;;8.40;99.90;;;;;;4920942;28;20802;-76
2022/04/21 02:28:38;;;;;;;7.43;5.00;;;8.30;99.90;;;;;;4942123;28;20137;-79
2022/04/21 02:31:05;;;;;;;5.53;4.13;;;8.30;99.90;;;;;;4945462;28;20603;-81
2022/04/21 02:33:33;;;;;;;10.10;4.55;;;8.30;99.90;;;;;;4940889;28;20035;-78
2022/04/21 02:35:58;;;;;;;10.23;4.25;;;8.30;99.90;;;;;;4956974;28;20047;-76
2022/04/21 02:38:24;;;;;;;7.45;4.70;;;8.30;99.90;;;;;;4943838;28;20655;-76
2022/04/21 02:40:50;;;;;;;8.90;4.80;;;8.30;99.90;;;;;;4926526;28;20070;-76
2022/04/21 02:43:16;;;;;;;7.25;3.90;;;8.30;99.90;;;;;;4940387;28;20026;-77
2022/04/21 02:45:43;;;;;;;5.97;3.90;;;8.30;99.90;;;;;;4944237;28;20058;-81
2022/04/21 02:48:10;;;;;;;7.82;4.78;;;8.30;99.90;;;;;;4942046;28;20646;-81
2022/04/21 02:50:36;;;;;;;9.77;4.72;;;8.30;99.90;;;;;;4930209;28;20046;-79
2022/04/21 02:53:02;;;;;;;7.03;3.92;;;8.30;99.90;;;;;;4926290;28;20426;-79
2022/04/21 02:58:14;;;;;;;7.18;4.18;;;8.30;99.90;;;;;;4937630;28;20031;-80
2022/04/21 03:00:40;;;;;;;7.38;3.65;;;8.30;99.90;;;;;;4942688;28;20026;-77
2022/04/21 03:03:05;;;;;;;7.47;4.50;;;8.20;99.90;;;;;;4938297;28;20033;-76
2022/04/21 03:05:31;;;;;;;5.93;4.05;;;8.30;99.90;;;;;;4941338;28;20126;-75
2022/04/21 03:07:57;;;;;;;6.32;3.72;;;8.30;99.90;;;;;;4952925;28;20042;-76
2022/04/21 03:10:22;;;;;;;7.93;4.25;;;8.20;99.90;;;;;;4939110;28;20039;-77
2022/04/21 03:12:49;;;;;;;7.88;4.40;;;8.20;99.90;;;;;;4943867;28;20030;-79
2022/04/21 03:15:15;;;;;;;6.10;4.30;;;8.20;99.90;;;;;;4938508;28;20563;-76
2022/04/21 03:17:41;;;;;;;9.95;4.63;;;8.20;99.90;;;;;;4939801;28;20035;-77
2022/04/21 03:20:07;;;;;;;7.85;4.20;;;8.20;99.90;;;;;;4941392;28;20220;-80
2022/04/21 03:25:20;;;;;;;8.15;4.60;;;8.20;99.90;;;;;;4957120;28;20620;-76
2022/04/21 03:27:49;;;;;;;6.65;3.95;;;8.20;99.90;;;;;;4945028;28;20463;-79
2022/04/21 03:30:15;;;;;;;8.32;3.92;;;8.10;99.90;;;;;;4943400;28;20150;-82
2022/04/21 03:32:42;;;;;;;9.73;4.88;;;8.20;99.90;;;;;;4943632;28;23488;-76
2022/04/21 03:35:07;;;;;;;8.43;4.45;;;8.10;99.90;;;;;;4947563;28;20518;-80
2022/04/21 03:37:33;;;;;;;7.20;4.57;;;8.10;99.90;;;;;;4947630;28;20088;-79
2022/04/21 03:40:00;;;;;;;7.60;4.20;;;8.10;99.90;;;;;;4924501;28;20896;-76
2022/04/21 03:42:28;;;;;;;9.68;5.05;;;8.10;99.90;;;;;;4944846;28;20027;-83
2022/04/21 03:44:55;;;;;;;6.72;4.68;;;8.00;99.90;;;;;;4925779;28;20118;-75
2022/04/21 03:47:21;;;;;;;6.60;4.55;;;8.00;99.90;;;;;;4940442;28;20050;-79
2022/04/21 03:49:47;;;;;;;7.47;4.30;;;8.00;99.90;;;;;;4947244;28;20027;-79
2022/04/21 03:52:14;;;;;;;8.68;4.35;;;8.00;99.90;;;;;;4929352;28;20117;-80
2022/04/21 03:54:40;;;;;;;7.45;4.18;;;8.00;99.90;;;;;;4931852;28;20338;-81
2022/04/21 03:57:06;;;;;;;7.95;4.90;;;8.00;99.90;;;;;;4932454;28;20039;-75
2022/04/21 03:59:33;;;;;;;6.28;4.38;;;8.00;99.90;;;;;;4947521;28;20051;-76
2022/04/21 04:02:02;;;;;;;9.25;4.90;;;8.00;99.90;;;;;;4960016;28;20027;-75
2022/04/21 04:04:34;;;;;;;8.65;4.45;;;8.00;99.90;;;;;;4942394;28;20051;-79
2022/04/21 04:12:31;;;;;;;7.70;4.35;;;7.90;99.90;;;;;;4946431;28;20038;-77
2022/04/21 04:14:58;;;;;;;10.02;4.20;;;7.90;99.90;;;;;;4928339;28;20049;-80
2022/04/21 04:17:24;;;;;;;8.43;4.43;;;8.00;99.90;;;;;;4946102;28;20027;-81
2022/04/21 04:19:50;;;;;;;7.90;5.00;;;8.00;99.90;;;;;;4943066;28;22349;-76
2022/04/21 04:22:16;;;;;;;9.60;5.22;;;7.90;99.90;;;;;;4929319;28;20059;-78
2022/04/21 04:24:47;;;;;;;7.78;4.70;;;7.90;99.90;;;;;;4937034;28;20035;-78
2022/04/21 04:27:12;;;;;;;7.53;4.50;;;7.90;99.90;;;;;;4950113;28;20073;-76
2022/04/21 04:29:38;;;;;;;8.23;4.47;;;8.00;99.90;;;;;;4926155;28;20086;-77
2022/04/21 04:32:04;;;;;;;7.57;4.47;;;7.90;99.90;;;;;;4928568;28;20035;-76
2022/04/21 04:34:31;;;;;;;7.40;4.53;;;8.00;99.90;;;;;;4940337;28;20023;-75
2022/04/21 04:36:57;;;;;;;9.32;4.78;;;8.00;99.90;;;;;;4938758;28;20070;-76
2022/04/21 04:39:23;;;;;;;7.50;5.00;;;7.90;99.90;;;;;;4952582;28;20154;-76
2022/04/21 04:44:34;;;;;;;7.07;4.47;;;8.00;99.90;;;;;;4941528;28;20046;-75
2022/04/21 04:46:59;;;;;;;11.90;4.97;;;8.00;99.90;;;;;;4954070;28;20045;-75
2022/04/21 04:49:25;;;;;;;8.48;4.30;;;8.10;99.90;;;;;;4955384;28;20036;-78
2022/04/21 04:51:51;;;;;;;7.47;4.97;;;8.10;99.90;;;;;;4937229;28;20031;-76
2022/04/21 04:54:17;;;;;;;6.78;4.40;;;8.20;99.90;;;;;;4940752;28;20618;-76
2022/04/21 04:56:47;;;;;;;9.07;4.97;;;8.20;99.90;;;;;;4944633;28;20030;-77
2022/04/21 04:59:13;;;;;;;10.77;5.10;;;8.20;99.90;;;;;;4939069;28;20080;-77
2022/04/21 05:01:42;;;;;;;9.23;4.82;;;8.20;99.90;;;;;;4940013;28;20039;-76
2022/04/21 05:04:18;;;;;;;6.32;4.28;;;8.20;99.90;;;;;;4924121;28;20027;-76
2022/04/21 05:06:50;;;;;;;7.45;4.40;;;8.20;99.90;;;;;;4922295;28;20041;-76
2022/04/21 05:09:18;;;;;;;7.93;4.28;;;8.30;99.90;;;;;;4939756;28;20038;-77
2022/04/21 05:11:50;;;;;;;6.90;4.40;;;8.30;99.90;;;;;;4937193;28;20058;-76
2022/04/21 05:14:17;;;;;;;8.38;4.43;;;8.30;99.90;;;;;;4941328;28;20251;-75
2022/04/21 05:16:43;;;;;;;7.88;4.00;;;8.40;99.90;;;;;;4940485;28;20027;-76
2022/04/21 05:19:13;;;;;;;7.13;3.75;;;8.50;99.90;;;;;;4940503;28;20032;-75
2022/04/21 05:21:40;;;;;;;5.67;4.30;;;8.50;99.90;;;;;;4941336;28;20062;-76
2022/04/21 05:24:07;;;;;;;8.00;4.10;;;8.60;99.90;;;;;;4921451;28;20294;-77
2022/04/21 05:26:34;;;;;;;7.80;4.35;;;8.60;99.90;;;;;;4946619;28;20046;-78
2022/04/21 05:30:55;;;;;;;8.05;4.00;;;8.60;99.90;;;;;;4939696;28;20030;-78
2022/04/21 05:31:54;;;;;;;6.68;3.95;;;8.70;99.90;;;;;;4947398;28;20039;-74
2022/04/21 05:34:20;;;;;;;6.03;3.90;;;8.70;99.90;;;;;;4941393;28;20043;-78
2022/04/21 05:36:46;;;;;;;6.65;3.85;;;8.70;99.90;;;;;;4926327;28;20031;-76
2022/04/21 05:39:12;;;;;;;6.40;3.95;;;8.80;99.90;;;;;;4944838;28;20030;-78
2022/04/21 05:41:38;;;;;;;8.68;3.92;;;8.90;99.90;;;;;;4930215;28;20062;-76
2022/04/21 05:44:06;;;;;;;8.15;4.05;;;9.00;99.90;;;;;;4944266;28;20043;-76
2022/04/21 05:46:32;;;;;;;6.82;3.50;;;9.10;99.90;;;;;;4943864;28;20531;-78
2022/04/21 05:48:58;;;;;;;6.82;3.47;;;9.10;99.90;;;;;;4944647;28;20026;-77
2022/04/21 05:51:24;;;;;;;5.30;3.60;;;9.20;99.90;;;;;;4939637;28;20043;-76
2022/04/21 05:53:52;;;;;;;8.48;4.00;;;9.30;99.90;;;;;;4962009;28;20042;-82
2022/04/21 05:56:18;;;;;;;7.22;3.70;;;9.30;99.90;;;;;;4943110;28;20054;-81
2022/04/21 05:58:47;;;;;;;6.45;3.78;;;9.40;99.90;;;;;;4947684;28;20043;-79
2022/04/21 06:01:13;;;;;;;8.13;3.28;;;9.60;99.90;;;;;;4946834;28;20106;-84
2022/04/21 06:03:39;;;;;;;5.53;3.70;;;9.80;99.90;;;;;;4930196;28;20122;-78
2022/04/21 06:06:09;;;;;;;4.18;2.95;;;10.00;99.90;;;;;;4939408;28;20102;-76
2022/04/21 06:08:36;;;;;;;6.27;3.40;;;10.00;99.30;;;;;;4924925;28;20032;-78
2022/04/21 06:11:05;;;;;;;6.28;3.60;;;10.20;99.20;;;;;;4926626;28;20490;-79
2022/04/21 06:13:34;;;;;;;4.55;2.80;;;10.30;99.10;;;;;;4941227;28;20274;-78
2022/04/21 06:16:00;;;;;;;5.88;3.72;;;10.30;98.80;;;;;;4942128;28;20979;-80
2022/04/21 06:18:28;;;;;;;8.18;3.17;;;10.30;98.60;;;;;;4946204;28;20154;-81
2022/04/21 06:20:55;;;;;;;8.00;3.33;;;10.40;98.40;;;;;;4943239;28;20041;-81
2022/04/21 06:23:21;;;;;;;6.45;2.95;;;10.30;98.30;;;;;;4943758;28;20038;-83
2022/04/21 06:25:47;;;;;;;6.43;3.33;;;10.20;98.20;;;;;;4944863;28;20035;-82
2022/04/21 06:28:15;;;;;;;7.57;3.25;;;10.30;98.30;;;;;;4946000;28;20211;-80
2022/04/21 06:30:42;;;;;;;6.13;3.38;;;10.30;98.30;;;;;;4947982;28;20031;-77
2022/04/21 06:33:07;;;;;;;5.85;3.03;;;10.30;98.20;;;;;;4946489;28;20017;-77
2022/04/21 06:35:35;;;;;;;8.90;3.53;;;10.30;98.30;;;;;;4939384;28;20035;-77
2022/04/21 06:38:02;;;;;;;4.93;3.00;;;10.30;97.90;;;;;;4942220;28;20042;-79
2022/04/21 06:40:28;;;;;;;6.15;2.63;;;10.30;97.90;;;;;;4927550;28;20095;-78
2022/04/21 06:42:53;;;;;;;5.22;2.70;;;10.30;98.00;;;;;;4924162;28;20110;-77
2022/04/21 06:48:06;;;;;;;4.95;3.08;;;10.40;97.70;;;;;;4945917;28;20443;-76
2022/04/21 06:50:36;;;;;;;4.22;2.42;;;10.40;97.40;;;;;;4941281;28;20027;-76
2022/04/21 06:53:05;;;;;;;4.27;2.87;;;10.40;97.50;;;;;;4938499;28;20038;-83
2022/04/21 06:55:31;;;;;;;3.90;2.70;;;10.40;97.30;;;;;;4963300;28;20042;-77
2022/04/21 06:57:57;;;;;;;5.65;2.92;;;10.50;97.40;;;;;;4949942;28;20030;-80
2022/04/21 07:00:26;;;;;;;4.50;2.50;;;10.50;97.40;;;;;;4942967;28;20492;-74
2022/04/21 07:02:57;;;;;;;5.18;2.95;;;10.50;97.30;;;;;;4935631;28;20550;-72
2022/04/21 07:05:23;;;;;;;8.45;3.38;;;10.50;97.40;;;;;;4941709;28;20414;-75
2022/04/21 07:07:50;;;;;;;4.57;2.83;;;10.60;97.20;;;;;;4944920;28;20050;-81
2022/04/21 07:10:16;;;;;;;6.43;2.58;;;10.60;97.10;;;;;;4921558;28;20635;-79
2022/04/21 07:12:43;;;;;;;3.60;2.42;;;10.80;97.30;;;;;;4962221;28;20035;-79
2022/04/21 07:15:10;;;;;;;4.20;2.97;;;10.90;96.80;;;;;;4917946;28;20027;-75
2022/04/21 07:17:38;;;;;;;5.55;2.13;;;11.00;96.20;;;;;;4955709;28;20063;-82
2022/04/21 07:20:05;;;;;;;3.72;2.22;;;11.10;95.90;;;;;;4946104;28;20031;-84
2022/04/21 07:22:31;;;;;;;4.30;2.58;;;11.20;95.40;;;;;;4962257;28;20083;-80
2022/04/21 07:25:01;;;;;;;3.03;2.22;;;11.10;94.60;;;;;;4955816;28;20074;-83
2022/04/21 07:27:27;;;;;;;2.92;2.20;;;11.20;94.80;;;;;;4942761;28;20126;-80
2022/04/21 07:29:54;;;;;;;3.83;2.28;;;11.20;94.40;;;;;;4927451;28;20118;-77
2022/04/21 07:32:20;;;;;;;4.00;2.30;;;11.30;94.50;;;;;;4943639;28;20403;-78
2022/04/21 07:34:46;;;;;;;3.45;2.15;;;11.30;94.10;;;;;;4929793;28;20045;-82
2022/04/21 07:37:14;;;;;;;4.15;2.38;;;11.40;94.20;;;;;;4950695;28;20031;-80
2022/04/21 07:39:40;;;;;;;5.40;2.28;;;11.40;94.00;;;;;;4939388;28;20099;-77
2022/04/21 07:42:07;;;;;;;3.55;2.20;;;11.50;93.70;;;;;;4979445;28;20163;-74
2022/04/21 07:44:36;;;;;;;3.63;2.10;;;11.50;93.20;;;;;;4974483;28;20031;-76
2022/04/21 07:47:04;;;;;;;3.70;2.10;;;11.50;93.00;;;;;;4956143;28;20048;-78
2022/04/21 07:49:48;;;;;;;3.03;2.13;;;11.50;93.10;;;;;;4957050;28;20333;-78
2022/04/21 07:55:23;;;;;;;6.68;2.03;;;11.60;92.70;;;;;;4955943;28;20031;-75
2022/04/21 07:57:51;;;;;;;5.68;2.75;;;11.70;92.60;;;;;;4958253;28;20035;-79
2022/04/21 08:00:19;;;;;;;3.38;2.00;;;11.70;92.70;;;;;;4952825;28;20035;-79
2022/04/21 08:02:48;;;;;;;2.55;1.73;;;11.80;92.20;;;;;;4960427;28;20027;-74
2022/04/21 08:05:16;;;;;;;3.92;2.28;;;11.80;92.20;;;;;;4955685;28;20102;-74
2022/04/21 08:07:44;;;;;;;4.85;2.17;;;11.90;91.90;;;;;;4957055;28;20097;-74
2022/04/21 08:10:11;;;;;;;4.80;2.30;;;11.90;91.80;;;;;;4958480;28;20031;-74
2022/04/21 08:12:41;;;;;;;3.70;1.92;;;11.90;91.90;;;;;;4960735;28;20098;-76
2022/04/21 08:15:09;;;;;;;2.55;2.10;;;11.90;91.60;;;;;;4976304;28;20181;-74
2022/04/21 08:17:36;;;;;;;6.55;2.80;;;12.00;91.50;;;;;;4960874;28;20031;-76
2022/04/21 08:20:11;;;;;;;3.95;1.88;;;12.00;91.20;;;;;;4957772;28;20986;-78
2022/04/21 08:22:39;;;;;;;4.70;2.00;;;12.00;91.10;;;;;;4952531;28;20038;-76
2022/04/21 08:33:22;;;;;;;3.30;2.08;;;12.20;90.40;;;;;;4963517;28;20043;-79
2022/04/21 08:35:50;;;;;;;1.83;1.45;;;12.30;88.30;;;;;;4954747;28;20034;-79
2022/04/21 08:38:17;;;;;;;2.08;1.70;;;12.40;86.10;;;;;;4949168;28;20038;-79
2022/04/21 08:40:53;;;;;;;3.33;1.73;;;12.40;84.90;;;;;;4972023;28;20031;-78
2022/04/21 08:43:19;;;;;;;3.42;1.85;;;12.30;85.20;;;;;;4971417;28;20031;-78
2022/04/21 08:45:48;;;;;;;3.33;1.98;;;12.40;84.70;;;;;;4955504;28;20054;-77
2022/04/21 08:48:16;;;;;;;5.30;2.00;;;12.40;83.80;;;;;;4954097;28;20031;-78
2022/04/21 08:50:43;;;;;;;3.92;1.58;;;12.50;83.10;;;;;;4957942;28;20103;-78
2022/04/21 08:53:10;;;;;;;4.60;1.65;;;12.50;83.40;;;;;;4941278;28;20462;-79
2022/04/21 08:55:39;;;;;;;6.25;2.10;;;12.50;83.00;;;;;;4951272;28;20031;-76
2022/04/21 08:58:06;;;;;;;4.22;2.28;;;12.70;82.60;;;;;;4956382;28;20102;-81
2022/04/21 09:00:32;;;;;;;4.72;1.75;;;12.70;82.50;;;;;;4940024;28;20384;-79
2022/04/21 09:03:04;;;;;;;2.58;1.70;;;12.70;82.80;;;;;;4941164;28;20077;-75
2022/04/21 09:05:30;;;;;;;2.22;1.83;;;12.80;82.40;;;;;;4956242;28;20078;-78
2022/04/21 09:07:59;;;;;;;4.82;1.80;;;12.90;82.30;;;;;;4948666;28;20038;-76
2022/04/21 09:10:26;;;;;;;5.00;1.92;;;13.00;81.60;;;;;;4966763;28;20154;-82
2022/04/21 09:12:57;;;;;;;3.20;1.70;;;13.00;80.70;;;;;;4962528;28;20023;-76
2022/04/21 09:15:36;;;;;;;2.75;1.58;;;13.00;80.60;;;;;;4944405;28;20035;-75
2022/04/21 09:18:08;;;;;;;5.28;1.90;;;13.10;79.90;;;;;;4961576;28;20019;-76
2022/04/21 09:20:35;;;;;;;3.15;1.77;;;13.10;79.10;;;;;;4949487;28;20086;-80
2022/04/21 09:23:06;;;;;;;4.35;1.92;;;13.10;78.80;;;;;;4974918;28;20027;-75
2022/04/21 09:25:53;;;;;;;3.25;1.52;;;13.10;79.10;;;;;;4966318;28;20027;-76
2022/04/21 09:28:24;;;;;;;3.60;2.00;;;13.10;78.90;;;;;;4960644;28;20150;-77
2022/04/21 09:30:52;;;;;;;3.17;1.70;;;13.20;79.70;;;;;;4964618;28;20038;-76
2022/04/21 09:33:34;;;;;;;2.50;1.50;;;13.30;80.50;;;;;;4964653;28;20030;-77
2022/04/21 09:36:03;;;;;;;3.45;2.08;;;13.50;79.70;;;;;;4977970;28;20027;-76
2022/04/21 09:38:30;;;;;;;2.33;1.80;;;13.50;78.50;;;;;;4958873;28;20042;-76
2022/04/21 09:41:03;;;;;;;3.40;1.70;;;13.60;78.80;;;;;;4942104;28;20038;-77
2022/04/21 09:43:31;;;;;;;5.70;2.00;;;13.60;78.50;;;;;;4959201;28;20106;-77
2022/04/21 09:46:20;;;;;;;5.25;2.10;;;13.70;78.20;;;;;;4956295;28;20035;-75
2022/04/21 09:48:51;;;;;;;2.40;1.70;;;13.90;78.20;;;;;;4953278;28;20046;-75
2022/04/21 09:51:22;;;;;;;3.20;1.85;;;13.90;77.60;;;;;;4954556;28;20439;-76
2022/04/21 09:54:02;;;;;;;4.40;2.00;;;14.00;77.60;;;;;;4954249;28;20058;-78
2022/04/21 09:56:32;;;;;;;5.43;2.25;;;13.90;76.50;;;;;;4965582;28;20029;-79
2022/04/21 09:59:00;;;;;;;3.70;1.67;;;13.90;77.00;;;;;;4957416;28;20038;-78
2022/04/21 10:01:28;;;;;;;3.10;1.73;;;13.90;76.60;;;;;;4954310;28;20035;-78
2022/04/21 10:03:55;;;;;;;9.35;2.20;;;14.00;76.80;;;;;;4950730;28;20434;-77
2022/04/21 10:06:22;;;;;;;2.03;1.60;;;14.10;76.50;;;;;;4954438;28;20051;-78
2022/04/21 10:08:51;;;;;;;4.15;1.92;;;14.00;75.50;;;;;;4955508;28;20035;-77
2022/04/21 10:11:24;;;;;;;1.60;1.27;;;14.10;75.40;;;;;;4955820;28;20030;-78
2022/04/21 10:13:55;;;;;;;5.57;1.70;;;14.20;75.90;;;;;;4953065;28;20035;-77
2022/04/21 10:16:23;;;;;;;2.95;2.15;;;14.40;74.90;;;;;;4965456;28;20031;-77
2022/04/21 10:18:52;;;;;;;4.07;2.40;;;14.40;74.30;;;;;;4953088;28;20031;-78
2022/04/21 10:21:48;;;;;;;2.90;1.70;;;14.50;74.10;;;;;;4930229;28;20038;-78
2022/04/21 10:24:21;;;;;;;3.45;1.75;;;14.70;73.90;;;;;;4967642;28;20035;-75
2022/04/21 10:26:46;;;;;;;3.67;1.85;;;14.90;72.20;;;;;;4953824;28;20057;-75
2022/04/21 10:29:13;;;;;;;4.90;2.10;;;15.20;72.00;;;;;;4957878;28;20027;-75
2022/04/21 10:32:04;;;;;;;3.13;1.83;;;15.40;70.80;;;;;;4957362;28;20035;-74
2022/04/21 10:34:34;;;;;;;4.20;1.98;;;15.70;71.10;;;;;;4954650;28;20483;-78
2022/04/21 10:37:20;;;;;;;2.88;2.05;;;16.00;69.40;;;;;;4950804;28;20030;-78
2022/04/21 10:40:09;;;;;;;4.40;2.20;;;16.20;66.50;;;;;;4957623;28;20050;-77
2022/04/21 10:42:57;;;;;;;6.55;2.50;;;16.10;66.80;;;;;;4955988;28;20037;-77
2022/04/21 10:45:31;;;;;;;6.75;2.80;;;16.20;64.80;;;;;;4956577;28;20193;-76
2022/04/21 10:48:04;;;;;;;6.30;2.78;;;16.30;64.60;;;;;;4938647;28;20415;-77
2022/04/21 10:50:31;;;;;;;7.43;3.20;;;16.60;65.40;;;;;;4951325;28;20045;-75
2022/04/21 10:58:33;;;;;;;8.30;3.28;;;17.20;63.80;;;;;;4948753;28;20023;-78
2022/04/21 11:01:11;;;;;;;5.88;3.38;;;17.40;62.30;;;;;;4952966;28;20038;-76
2022/04/21 11:03:39;;;;;;;6.70;3.22;;;17.30;62.10;;;;;;4972961;28;20073;-75
2022/04/21 11:06:06;;;;;;;4.95;3.08;;;17.30;62.00;;;;;;4956575;28;20034;-79
2022/04/21 11:08:32;;;;;;;6.45;3.33;;;17.70;63.10;;;;;;4960655;28;20162;-75
2022/04/21 11:10:58;;;;;;;7.10;3.50;;;18.60;60.40;;;;;;4956922;28;20549;-75
2022/04/21 11:13:48;;;;;;;6.13;3.10;;;19.10;58.50;;;;;;4941917;28;20031;-75
2022/04/21 11:16:47;;;;;;;7.20;3.30;;;18.80;57.80;;;;;;4950593;28;20027;-77
2022/04/21 11:19:33;;;;;;;7.50;3.00;;;18.50;58.50;;;;;;4948623;28;20475;-79
2022/04/21 11:21:59;;;;;;;9.35;3.50;;;18.10;59.10;;;;;;4957140;28;20030;-75
2022/04/21 11:24:26;;;;;;;6.43;3.25;;;17.90;58.40;;;;;;4944901;28;20409;-79
2022/04/21 11:26:59;;;;;;;5.50;3.20;;;17.30;59.40;;;;;;4954954;28;20049;-78
2022/04/21 11:29:25;;;;;;;5.60;3.03;;;17.20;60.20;;;;;;4942213;28;20031;-78
2022/04/21 11:31:59;;;;;;;7.43;2.95;;;16.90;61.00;;;;;;4962006;28;20035;-79
2022/04/21 11:34:26;;;;;;;5.20;2.20;;;16.80;61.60;;;;;;4958144;28;20027;-80
2022/04/21 11:36:56;;;;;;;3.72;2.30;;;16.90;62.60;;;;;;4958385;28;20030;-78
2022/04/21 11:39:22;;;;;;;4.60;2.30;;;16.80;61.10;;;;;;4961257;28;20110;-76
2022/04/21 11:41:52;;;;;;;6.65;2.50;;;16.50;61.40;;;;;;4959759;28;20490;-77
2022/04/21 11:44:22;;;;;;;5.93;2.47;;;16.40;61.90;;;;;;4956803;28;20043;-73
2022/04/21 11:46:48;;;;;;;3.88;2.20;;;16.20;62.00;;;;;;4957441;28;20030;-74
2022/04/21 11:49:14;;;;;;;5.50;2.30;;;16.10;62.80;;;;;;4961863;28;20597;-74
2022/04/21 11:51:41;;;;;;;6.45;2.35;;;16.20;62.70;;;;;;4960469;28;20103;-75
2022/04/21 11:54:09;;;;;;;6.13;2.40;;;16.20;62.90;;;;;;4961661;28;20035;-73
2022/04/21 11:56:36;;;;;;;4.22;2.22;;;16.10;62.80;;;;;;4960725;28;20026;-77
2022/04/21 11:59:07;;;;;;;5.70;2.60;;;16.00;63.20;;;;;;4959204;28;20031;-76
2022/04/21 12:07:09;;;;;;;4.93;2.50;;;16.00;63.00;;;;;;4957941;28;20039;-76
2022/04/21 12:09:40;;;;;;;6.82;2.92;;;16.30;63.20;;;;;;4957247;28;20106;-76
2022/04/21 12:12:08;;;;;;;4.97;2.60;;;16.50;62.70;;;;;;4976273;28;20028;-77
2022/04/21 12:14:35;;;;;;;4.22;2.15;;;16.50;61.60;;;;;;4953786;28;20031;-77
2022/04/21 12:17:06;;;;;;;5.43;2.45;;;16.50;61.90;;;;;;4952543;28;20059;-73
2022/04/21 12:19:38;;;;;;;4.43;2.40;;;16.20;61.70;;;;;;4960441;28;20031;-74
2022/04/21 12:22:16;;;;;;;3.40;1.92;;;16.10;62.10;;;;;;4942488;28;20465;-74
2022/04/21 12:24:47;;;;;;;4.88;2.03;;;16.30;62.40;;;;;;4956256;28;20035;-74
2022/04/21 12:27:34;;;;;;;5.60;2.38;;;16.60;62.40;;;;;;4956004;28;20043;-74
2022/04/21 12:30:09;;;;;;;8.02;1.88;;;17.30;61.80;;;;;;4959907;28;20038;-73
2022/04/21 12:32:38;;;;;;;4.60;1.90;;;18.00;59.00;;;;;;4956896;28;20054;-74
2022/04/21 12:35:06;;;;;;;5.28;2.40;;;18.10;58.80;;;;;;4958999;28;20090;-74
2022/04/21 12:37:36;;;;;;;5.07;2.00;;;18.40;57.70;;;;;;4969273;28;20026;-78
2022/04/21 12:40:13;;;;;;;7.22;2.05;;;18.40;57.80;;;;;;4955390;28;20056;-76
2022/04/21 12:42:40;;;;;;;6.15;2.15;;;18.20;57.40;;;;;;4954344;28;20033;-74
2022/04/21 12:45:08;;;;;;;4.43;2.22;;;17.90;57.50;;;;;;4943631;28;20033;-74
2022/04/21 12:47:47;;;;;;;5.50;2.17;;;18.00;58.00;;;;;;4962338;28;20113;-74
2022/04/21 12:50:22;;;;;;;5.03;2.20;;;18.10;57.50;;;;;;4953903;28;20031;-73
2022/04/21 12:52:49;;;;;;;5.25;2.40;;;18.10;57.10;;;;;;4940931;28;20627;-75
2022/04/21 12:55:22;;;;;;;4.68;2.35;;;18.10;57.10;;;;;;4952542;28;20066;-74
2022/04/21 12:58:09;;;;;;;6.55;2.30;;;18.20;57.50;;;;;;4957546;28;20139;-74
2022/04/21 13:00:41;;;;;;;7.15;2.20;;;18.30;57.40;;;;;;4957417;28;20036;-74
2022/04/21 13:03:10;;;;;;;7.15;2.55;;;18.00;57.70;;;;;;4951254;28;20106;-74
2022/04/21 13:05:49;;;;;;;4.72;2.50;;;18.30;58.00;;;;;;4953294;28;20578;-75
2022/04/21 13:08:15;;;;;;;7.70;2.38;;;18.60;57.60;;;;;;4950384;28;21657;-73
2022/04/21 13:10:41;;;;;;;4.63;2.53;;;19.00;56.30;;;;;;4939258;28;20054;-73
2022/04/21 13:13:07;;;;;;;4.22;2.83;;;19.10;56.00;;;;;;4952404;28;20038;-75
2022/04/21 13:15:33;;;;;;;6.50;2.90;;;19.20;55.80;;;;;;4953545;28;20039;-74
2022/04/21 13:17:58;;;;;;;4.95;2.45;;;18.90;55.80;;;;;;4958171;28;20023;-74
2022/04/21 13:23:08;;;;;;;6.60;2.85;;;18.30;57.10;;;;;;4957984;28;20479;-73
2022/04/21 13:25:34;;;;;;;8.82;3.22;;;17.90;58.00;;;;;;4953964;28;20550;-73
2022/04/21 13:28:00;;;;;;;7.00;2.33;;;17.40;58.70;;;;;;4949153;28;20443;-76
2022/04/21 13:30:26;;;;;;;6.30;2.92;;;17.30;59.60;;;;;;4962294;28;20117;-75
2022/04/21 13:35:35;;;;;;;7.32;3.03;;;17.10;60.40;;;;;;4950530;28;20090;-74
2022/04/21 13:38:01;;;;;;;6.70;2.80;;;16.90;60.80;;;;;;4925068;28;20118;-75
2022/04/21 13:40:27;;;;;;;7.65;3.00;;;16.90;61.40;;;;;;4952633;28;20092;-75
2022/04/21 13:42:52;;;;;;;7.22;3.28;;;16.60;61.30;;;;;;4964000;28;20031;-74
2022/04/21 13:45:18;;;;;;;5.60;3.00;;;16.60;61.70;;;;;;4950890;28;20085;-75
2022/04/21 13:47:44;;;;;;;6.10;2.90;;;16.80;61.90;;;;;;4934809;28;20030;-74
2022/04/21 13:50:09;;;;;;;6.35;3.20;;;17.10;62.00;;;;;;4954848;28;21428;-74
2022/04/21 13:52:37;;;;;;;12.25;3.10;;;17.20;61.50;;;;;;4955590;28;20061;-75